createdAt,value
2018-11-26T00:00:46.881Z,-2.31
2018-11-26T00:03:15.403Z,-2.35
2018-11-26T00:05:43.864Z,-2.39
2018-11-26T00:08:13.302Z,-2.36
2018-11-26T00:10:53.089Z,-2.31
2018-11-26T00:13:21.556Z,-2.24
2018-11-26T00:15:49.998Z,-2.20
2018-11-26T00:18:18.475Z,-2.19
2018-11-26T00:20:46.922Z,-2.15
2018-11-26T00:23:15.396Z,-2.17
2018-11-26T00:25:43.896Z,-2.15
2018-11-26T00:28:12.387Z,-2.15
2018-11-26T00:30:40.866Z,-2.15
2018-11-26T00:33:09.323Z,-2.12
2018-11-26T00:35:37.791Z,-2.16
2018-11-26T00:38:06.341Z,-2.23
2018-11-26T00:40:34.827Z,-2.22
2018-11-26T00:43:03.320Z,-2.11
2018-11-26T00:45:31.830Z,-1.98
2018-11-26T00:48:00.280Z,-1.95
2018-11-26T00:50:28.747Z,-1.88
2018-11-26T00:52:57.202Z,-1.77
2018-11-26T00:55:25.669Z,-1.67
2018-11-26T00:57:54.111Z,-1.61
2018-11-26T01:00:22.616Z,-1.59
2018-11-26T01:02:51.070Z,-1.56
2018-11-26T01:05:30.526Z,-1.58
2018-11-26T01:07:58.974Z,-1.59
2018-11-26T01:10:27.444Z,-1.60
2018-11-26T01:12:55.900Z,-1.51
2018-11-26T01:15:24.372Z,-1.46
2018-11-26T01:17:52.810Z,-1.45
2018-11-26T01:20:21.372Z,-1.49
2018-11-26T01:22:49.818Z,-1.51
2018-11-26T01:25:18.350Z,-1.54
2018-11-26T01:27:46.798Z,-1.55
2018-11-26T01:30:15.291Z,-1.51
2018-11-26T01:32:43.760Z,-1.42
2018-11-26T01:35:12.247Z,-1.37
2018-11-26T01:37:40.683Z,-1.34
2018-11-26T01:40:14.014Z,-1.34
2018-11-26T01:42:42.812Z,-1.40
2018-11-26T01:45:11.277Z,-1.39
2018-11-26T01:47:39.756Z,-1.46
2018-11-26T01:50:08.499Z,-1.48
2018-11-26T01:52:36.988Z,-1.48
2018-11-26T01:55:06.080Z,-1.51
2018-11-26T01:57:34.562Z,-1.52
2018-11-26T02:00:03.504Z,-1.53
2018-11-26T02:02:44.495Z,-1.51
2018-11-26T02:05:12.943Z,-1.54
2018-11-26T02:07:41.423Z,-1.57
2018-11-26T02:10:13.928Z,-1.58
2018-11-26T02:12:42.402Z,-1.62
2018-11-26T02:15:18.914Z,-1.67
2018-11-26T02:17:47.406Z,-1.68
2018-11-26T02:20:15.858Z,-1.65
2018-11-26T02:22:44.364Z,-1.68
2018-11-26T02:25:12.839Z,-1.73
2018-11-26T02:27:41.307Z,-1.72
2018-11-26T02:30:09.798Z,-1.68
2018-11-26T02:32:38.254Z,-1.57
2018-11-26T02:35:07.043Z,-1.45
2018-11-26T02:37:35.516Z,-1.36
2018-11-26T02:40:04.004Z,-1.28
2018-11-26T02:42:32.476Z,-1.21
2018-11-26T02:45:00.906Z,-1.22
2018-11-26T02:47:29.382Z,-1.22
2018-11-26T02:49:57.824Z,-1.10
2018-11-26T02:52:26.276Z,-1.05
2018-11-26T02:54:54.713Z,-1.10
2018-11-26T02:57:23.179Z,-1.19
2018-11-26T02:59:55.351Z,-1.23
2018-11-26T03:02:23.807Z,-1.26
2018-11-26T03:04:52.235Z,-1.26
2018-11-26T03:07:20.705Z,-1.25
2018-11-26T03:09:49.160Z,-1.21
2018-11-26T03:12:17.635Z,-1.16
2018-11-26T03:14:46.092Z,-1.09
2018-11-26T03:17:14.563Z,-1.07
2018-11-26T03:19:43.010Z,-1.06
2018-11-26T03:22:11.469Z,-1.03
2018-11-26T03:24:39.949Z,-1.04
2018-11-26T03:27:08.428Z,-1.01
2018-11-26T03:29:36.884Z,-1.01
2018-11-26T03:32:05.416Z,-0.96
2018-11-26T03:34:33.876Z,-0.93
2018-11-26T03:37:02.323Z,-0.92
2018-11-26T03:39:30.812Z,-0.90
2018-11-26T03:41:59.254Z,-0.89
2018-11-26T03:44:27.730Z,-0.82
2018-11-26T03:46:56.176Z,-0.75
2018-11-26T03:49:24.657Z,-0.70
2018-11-26T03:51:53.108Z,-0.67
2018-11-26T03:54:21.588Z,-0.72
2018-11-26T03:56:50.036Z,-0.68
2018-11-26T03:59:18.508Z,-0.61
2018-11-26T04:01:46.958Z,-0.58
2018-11-26T04:04:15.432Z,-0.57
2018-11-26T04:06:43.888Z,-0.55
2018-11-26T04:09:12.376Z,-0.53
2018-11-26T04:11:40.819Z,-0.53
2018-11-26T04:14:09.327Z,-0.55
2018-11-26T04:16:37.766Z,-0.53
2018-11-26T04:19:06.627Z,-0.53
2018-11-26T04:21:35.088Z,-0.56
2018-11-26T04:24:03.599Z,-0.57
2018-11-26T04:26:32.082Z,-0.62
2018-11-26T04:29:00.543Z,-0.69
2018-11-26T04:31:28.989Z,-0.75
2018-11-26T04:33:57.465Z,-0.76
2018-11-26T04:36:25.902Z,-0.76
2018-11-26T04:38:54.365Z,-0.74
2018-11-26T04:41:22.801Z,-0.71
2018-11-26T04:43:51.254Z,-0.69
2018-11-26T04:46:19.713Z,-0.68
2018-11-26T04:48:48.183Z,-0.68
2018-11-26T04:51:16.626Z,-0.63
2018-11-26T04:53:45.095Z,-0.55
2018-11-26T04:56:13.539Z,-0.50
2018-11-26T04:58:42.014Z,-0.55
2018-11-26T05:01:10.455Z,-0.66
2018-11-26T05:03:38.920Z,-0.56
2018-11-26T05:06:07.400Z,-0.33
2018-11-26T05:08:35.887Z,-0.10
2018-11-26T05:11:04.341Z,0.08
2018-11-26T05:13:32.798Z,0.19
2018-11-26T05:16:01.240Z,0.22
2018-11-26T05:18:29.709Z,0.32
2018-11-26T05:20:58.129Z,0.38
2018-11-26T05:23:26.590Z,0.39
2018-11-26T05:25:55.066Z,0.39
2018-11-26T05:28:23.534Z,0.36
2018-11-26T05:30:51.975Z,0.46
2018-11-26T05:33:20.455Z,0.57
2018-11-26T05:35:48.899Z,0.66
2018-11-26T05:38:17.352Z,0.72
2018-11-26T05:40:45.826Z,0.81
2018-11-26T05:43:14.274Z,0.98
2018-11-26T05:45:42.749Z,1.12
2018-11-26T05:48:11.184Z,1.14
2018-11-26T05:50:39.663Z,1.25
2018-11-26T05:53:08.137Z,1.17
2018-11-26T05:55:36.622Z,1.20
2018-11-26T05:58:05.140Z,1.19
2018-11-26T06:00:34.752Z,1.16
2018-11-26T06:03:03.361Z,1.12
2018-11-26T06:05:31.837Z,1.06
2018-11-26T06:08:00.295Z,1.08
2018-11-26T06:10:28.764Z,1.13
2018-11-26T06:12:57.206Z,1.14
2018-11-26T06:15:25.668Z,1.16
2018-11-26T06:17:54.127Z,1.13
2018-11-26T06:20:22.608Z,1.08
2018-11-26T06:22:51.050Z,1.00
2018-11-26T06:25:20.715Z,0.94
2018-11-26T06:27:49.324Z,0.89
2018-11-26T06:30:18.969Z,0.78
2018-11-26T06:32:47.475Z,0.62
2018-11-26T06:35:23.356Z,0.51
2018-11-26T06:37:51.830Z,0.40
2018-11-26T06:40:20.331Z,0.35
2018-11-26T06:42:48.771Z,0.33
2018-11-26T06:45:20.498Z,0.27
2018-11-26T06:47:48.933Z,0.17
2018-11-26T06:50:18.418Z,0.14
2018-11-26T06:52:46.871Z,0.16
2018-11-26T06:55:16.447Z,0.17
2018-11-26T06:57:44.892Z,0.16
2018-11-26T07:00:15.590Z,0.14
2018-11-26T07:02:44.070Z,0.06
2018-11-26T07:05:15.561Z,0.01
2018-11-26T07:07:44.113Z,-0.06
2018-11-26T07:10:13.244Z,-0.05
2018-11-26T07:12:41.768Z,-0.03
2018-11-26T07:15:14.244Z,-0.04
2018-11-26T07:17:42.787Z,-0.08
2018-11-26T07:20:13.391Z,-0.03
2018-11-26T07:22:41.856Z,-0.03
2018-11-26T07:25:13.460Z,-0.01
2018-11-26T07:27:42.270Z,0.05
2018-11-26T07:30:17.651Z,0.15
2018-11-26T07:32:46.107Z,0.22
2018-11-26T07:35:15.105Z,0.23
2018-11-26T07:37:43.599Z,0.25
2018-11-26T07:40:15.214Z,0.32
2018-11-26T07:42:54.607Z,0.41
2018-11-26T07:45:23.081Z,0.51
2018-11-26T07:47:51.544Z,0.57
2018-11-26T07:50:20.284Z,0.57
2018-11-26T07:52:48.755Z,0.64
2018-11-26T07:55:18.462Z,0.73
2018-11-26T07:57:46.934Z,0.91
2018-11-26T08:00:19.993Z,1.02
2018-11-26T08:02:48.810Z,1.08
2018-11-26T08:05:19.332Z,1.11
2018-11-26T08:07:47.784Z,1.11
2018-11-26T08:10:17.381Z,1.19
2018-11-26T08:12:46.624Z,1.31
2018-11-26T08:15:18.179Z,1.39
2018-11-26T08:17:46.632Z,1.53
2018-11-26T08:20:15.084Z,1.65
2018-11-26T08:22:43.551Z,1.78
2018-11-26T08:25:14.061Z,1.81
2018-11-26T08:27:43.532Z,1.82
2018-11-26T08:30:13.379Z,1.85
2018-11-26T08:32:42.034Z,1.87
2018-11-26T08:35:12.250Z,1.87
2018-11-26T08:37:45.935Z,1.86
2018-11-26T08:40:25.316Z,1.85
2018-11-26T08:44:02.795Z,1.88
2018-11-26T08:46:36.857Z,2.05
2018-11-26T08:49:11.562Z,2.16
2018-11-26T08:51:40.295Z,2.26
2018-11-26T08:54:08.772Z,2.30
2018-11-26T08:56:37.207Z,2.37
2018-11-26T08:59:05.751Z,2.59
2018-11-26T09:01:35.240Z,2.79
2018-11-26T09:04:09.030Z,2.94
2018-11-26T09:06:37.896Z,3.00
2018-11-26T09:09:09.804Z,3.05
2018-11-26T09:11:38.241Z,3.00
2018-11-26T09:14:07.032Z,2.96
2018-11-26T09:16:35.799Z,2.93
2018-11-26T09:19:04.283Z,2.91
2018-11-26T09:21:32.721Z,2.94
2018-11-26T09:24:01.208Z,2.97
2018-11-26T09:26:29.655Z,2.95
2018-11-26T09:28:58.094Z,2.96
2018-11-26T09:31:26.535Z,3.02
2018-11-26T09:33:54.994Z,3.12
2018-11-26T09:36:23.443Z,3.21
2018-11-26T09:38:51.934Z,3.33
2018-11-26T09:41:21.186Z,3.42
2018-11-26T09:43:49.608Z,3.48
2018-11-26T09:46:18.118Z,3.54
2018-11-26T09:48:46.549Z,3.61
2018-11-26T09:51:15.011Z,3.73
2018-11-26T09:53:43.492Z,3.76
2018-11-26T09:56:11.983Z,3.82
2018-11-26T09:58:40.416Z,3.91
2018-11-26T10:01:08.876Z,3.89
2018-11-26T10:03:37.354Z,3.84
2018-11-26T10:06:06.243Z,3.83
2018-11-26T10:08:34.675Z,3.84
2018-11-26T10:11:03.139Z,3.85
2018-11-26T10:13:31.575Z,3.86
2018-11-26T10:16:00.034Z,3.86
2018-11-26T10:18:28.472Z,3.80
2018-11-26T10:20:56.934Z,3.78
2018-11-26T10:23:25.367Z,3.77
2018-11-26T10:25:53.854Z,3.77
2018-11-26T10:28:22.431Z,3.82
2018-11-26T10:30:51.087Z,3.90
2018-11-26T10:33:19.617Z,3.96
2018-11-26T10:35:48.092Z,4.03
2018-11-26T10:38:16.527Z,4.09
2018-11-26T10:40:44.982Z,4.18
2018-11-26T10:43:13.423Z,4.20
2018-11-26T10:45:41.887Z,4.23
2018-11-26T10:48:10.317Z,4.29
2018-11-26T10:50:38.790Z,4.32
2018-11-26T10:53:07.347Z,4.34
2018-11-26T10:55:36.759Z,4.37
2018-11-26T10:58:05.858Z,4.38
2018-11-26T11:00:38.515Z,4.35
2018-11-26T11:03:07.042Z,4.32
2018-11-26T11:05:36.507Z,4.39
2018-11-26T11:08:05.375Z,4.44
2018-11-26T11:10:34.175Z,4.49
2018-11-26T11:13:02.634Z,4.54
2018-11-26T11:15:31.115Z,4.57
2018-11-26T11:17:59.583Z,4.62
2018-11-26T11:20:28.966Z,4.66
2018-11-26T11:22:57.424Z,4.71
2018-11-26T11:25:26.273Z,4.73
2018-11-26T11:27:54.484Z,4.76
2018-11-26T11:30:24.669Z,4.81
2018-11-26T11:32:53.139Z,4.82
2018-11-26T11:35:21.637Z,4.89
2018-11-26T11:37:50.996Z,4.88
2018-11-26T11:40:23.725Z,4.93
2018-11-26T11:42:52.548Z,4.97
2018-11-26T11:45:21.484Z,5.01
2018-11-26T11:47:49.937Z,5.06
2018-11-26T11:50:20.148Z,5.04
2018-11-26T11:52:48.871Z,5.03
2018-11-26T11:55:23.414Z,5.06
2018-11-26T11:57:52.292Z,5.01
2018-11-26T12:00:39.094Z,4.99
2018-11-26T12:03:09.882Z,4.97
2018-11-26T12:05:38.362Z,4.92
2018-11-26T12:08:07.790Z,4.88
2018-11-26T12:10:36.261Z,4.87
2018-11-26T12:13:04.784Z,4.86
2018-11-26T12:15:33.240Z,4.89
2018-11-26T12:18:01.685Z,4.87
2018-11-26T12:20:30.120Z,4.84
2018-11-26T12:22:58.598Z,4.86
2018-11-26T12:25:27.064Z,4.80
2018-11-26T12:27:55.529Z,4.74
2018-11-26T12:30:25.192Z,4.65
2018-11-26T12:32:53.714Z,4.62
2018-11-26T12:35:22.191Z,4.55
2018-11-26T12:37:50.802Z,4.49
2018-11-26T12:40:21.327Z,4.48
2018-11-26T12:42:50.784Z,4.46
2018-11-26T12:45:21.413Z,4.40
2018-11-26T12:47:49.965Z,4.37
2018-11-26T12:50:18.478Z,4.44
2018-11-26T12:52:46.940Z,4.51
2018-11-26T12:55:16.612Z,4.54
2018-11-26T12:57:45.870Z,4.46
2018-11-26T13:00:17.113Z,4.44
2018-11-26T13:02:46.868Z,4.46
2018-11-26T13:05:17.290Z,4.48
2018-11-26T13:07:45.740Z,4.53
2018-11-26T13:10:15.229Z,4.50
2018-11-26T13:12:43.968Z,4.43
2018-11-26T13:15:13.780Z,4.41
2018-11-26T13:17:42.260Z,4.42
2018-11-26T13:20:17.934Z,4.40
2018-11-26T13:22:46.401Z,4.42
2018-11-26T13:25:16.240Z,4.40
2018-11-26T13:27:47.026Z,4.36
2018-11-26T13:30:18.386Z,4.32
2018-11-26T13:32:49.129Z,4.28
2018-11-26T13:35:18.442Z,4.30
2018-11-26T13:37:46.944Z,4.31
2018-11-26T13:40:16.462Z,4.34
2018-11-26T13:42:45.050Z,4.29
2018-11-26T13:45:19.940Z,4.19
2018-11-26T13:47:48.397Z,4.10
2018-11-26T13:50:23.022Z,4.07
2018-11-26T13:52:50.745Z,4.01
2018-11-26T13:55:19.228Z,3.89
2018-11-26T13:57:47.779Z,3.80
2018-11-26T14:00:16.908Z,3.72
2018-11-26T14:02:45.359Z,3.68
2018-11-26T14:05:17.976Z,3.69
2018-11-26T14:07:46.826Z,3.66
2018-11-26T14:10:18.396Z,3.65
2018-11-26T14:12:48.196Z,3.62
2018-11-26T14:15:16.694Z,3.60
2018-11-26T14:17:45.144Z,3.54
2018-11-26T14:20:14.953Z,3.47
2018-11-26T14:22:43.418Z,3.38
2018-11-26T14:25:13.344Z,3.29
2018-11-26T14:27:42.312Z,3.17
2018-11-26T14:30:16.005Z,3.05
2018-11-26T14:32:44.456Z,2.96
2018-11-26T14:35:12.925Z,2.81
2018-11-26T14:37:41.397Z,2.70
2018-11-26T14:40:16.300Z,2.57
2018-11-26T14:42:44.751Z,2.44
2018-11-26T14:45:13.923Z,2.31
2018-11-26T14:47:42.798Z,2.20
2018-11-26T14:50:14.068Z,2.09
2018-11-26T14:52:43.704Z,1.97
2018-11-26T14:55:21.735Z,1.86
2018-11-26T14:57:50.393Z,1.75
2018-11-26T15:00:19.545Z,1.64
2018-11-26T15:02:47.992Z,1.51
2018-11-26T15:05:16.545Z,1.40
2018-11-26T15:07:45.191Z,1.28
2018-11-26T15:10:15.703Z,1.22
2018-11-26T15:12:44.372Z,1.22
2018-11-26T15:15:15.168Z,1.22
2018-11-26T15:17:44.254Z,1.22
2018-11-26T15:20:21.331Z,1.25
2018-11-26T15:22:50.241Z,1.25
2018-11-26T15:25:21.028Z,1.26
2018-11-26T15:27:49.567Z,1.27
2018-11-26T15:30:19.370Z,1.26
2018-11-26T15:32:47.837Z,1.19
2018-11-26T15:35:19.330Z,1.09
2018-11-26T15:37:47.803Z,1.05
2018-11-26T15:40:17.252Z,1.03
2018-11-26T15:42:45.694Z,1.05
2018-11-26T15:45:20.344Z,1.07
2018-11-26T15:47:49.361Z,1.10
2018-11-26T15:50:17.895Z,1.10
2018-11-26T15:52:46.336Z,1.10
2018-11-26T15:55:17.039Z,1.10
2018-11-26T15:57:45.586Z,1.06
2018-11-26T16:00:16.211Z,0.94
2018-11-26T16:02:44.747Z,0.83
2018-11-26T16:05:21.085Z,0.74
2018-11-26T16:07:50.257Z,0.62
2018-11-26T16:10:18.719Z,0.51
2018-11-26T16:12:48.719Z,0.41
2018-11-26T16:15:31.973Z,0.31
2018-11-26T16:18:01.323Z,0.27
2018-11-26T16:20:29.816Z,0.28
2018-11-26T16:22:59.261Z,0.30
2018-11-26T16:25:27.762Z,0.29
2018-11-26T16:27:56.236Z,0.26
2018-11-26T16:30:24.667Z,0.15
2018-11-26T16:32:57.254Z,0.01
2018-11-26T16:35:31.588Z,-0.06
2018-11-26T16:38:00.270Z,-0.09
2018-11-26T16:40:28.740Z,-0.09
2018-11-26T16:42:57.207Z,-0.01
2018-11-26T16:45:27.742Z,0.06
2018-11-26T16:47:57.489Z,0.11
2018-11-26T16:50:31.183Z,0.04
2018-11-26T16:52:59.657Z,0.02
2018-11-26T16:55:28.111Z,-0.01
2018-11-26T16:57:56.582Z,-0.02
2018-11-26T17:00:27.185Z,-0.02
2018-11-26T17:02:57.905Z,-0.02
2018-11-26T17:05:28.681Z,-0.02
2018-11-26T17:07:57.138Z,0.01
2018-11-26T17:10:25.600Z,0.03
2018-11-26T17:12:54.083Z,0.08
2018-11-26T17:15:22.542Z,0.10
2018-11-26T17:17:50.977Z,0.14
2018-11-26T17:20:19.470Z,0.16
2018-11-26T17:22:47.910Z,0.17
2018-11-26T17:25:17.183Z,0.21
2018-11-26T17:27:46.002Z,0.26
2018-11-26T17:30:18.825Z,0.27
2018-11-26T17:32:49.418Z,0.19
2018-11-26T17:35:18.070Z,0.11
2018-11-26T17:37:46.547Z,0.11
2018-11-26T17:40:18.003Z,0.16
2018-11-26T17:42:46.455Z,0.13
2018-11-26T17:45:15.485Z,0.06
2018-11-26T17:47:47.062Z,-0.03
2018-11-26T17:50:24.476Z,-0.14
2018-11-26T17:52:52.917Z,-0.22
2018-11-26T17:55:21.403Z,-0.31
2018-11-26T17:57:49.939Z,-0.45
2018-11-26T18:00:24.023Z,-0.57
2018-11-26T18:02:52.491Z,-0.66
2018-11-26T18:05:25.467Z,-0.70
2018-11-26T18:07:58.419Z,-0.74
2018-11-26T18:10:26.889Z,-0.79
2018-11-26T18:12:55.332Z,-0.84
2018-11-26T18:15:23.793Z,-0.89
2018-11-26T18:17:52.241Z,-0.94
2018-11-26T18:20:21.729Z,-0.95
2018-11-26T18:22:51.583Z,-1.01
2018-11-26T18:25:20.747Z,-1.02
2018-11-26T18:27:53.993Z,-1.05
2018-11-26T18:30:24.723Z,-1.04
2018-11-26T18:32:53.173Z,-1.06
2018-11-26T18:35:21.626Z,-1.04
2018-11-26T18:37:50.124Z,-1.06
2018-11-26T18:40:18.606Z,-1.08
2018-11-26T18:42:47.089Z,-1.11
2018-11-26T18:45:16.633Z,-1.12
2018-11-26T18:47:45.876Z,-1.14
2018-11-26T18:50:17.548Z,-1.20
2018-11-26T18:52:46.560Z,-1.28
2018-11-26T18:55:15.028Z,-1.35
2018-11-26T18:57:43.625Z,-1.40
2018-11-26T19:00:17.664Z,-1.46
2018-11-26T19:02:46.146Z,-1.52
2018-11-26T19:05:15.469Z,-1.54
2018-11-26T19:07:43.935Z,-1.56
2018-11-26T19:10:18.495Z,-1.55
2018-11-26T19:12:50.801Z,-1.55
2018-11-26T19:15:22.218Z,-1.64
2018-11-26T19:17:51.904Z,-1.74
2018-11-26T19:20:20.393Z,-1.79
2018-11-26T19:22:48.852Z,-1.79
2018-11-26T19:25:18.505Z,-1.85
2018-11-26T19:27:47.016Z,-1.88
2018-11-26T19:30:15.932Z,-1.86
2018-11-26T19:32:45.278Z,-1.84
2018-11-26T19:35:14.970Z,-1.86
2018-11-26T19:37:43.500Z,-1.90
2018-11-26T19:40:15.110Z,-1.98
2018-11-26T19:42:45.248Z,-2.04
2018-11-26T19:45:16.085Z,-2.10
2018-11-26T19:47:44.623Z,-2.20
2018-11-26T19:50:14.265Z,-2.26
2018-11-26T19:52:42.868Z,-2.28
2018-11-26T19:55:15.659Z,-2.22
2018-11-26T19:57:44.124Z,-2.14
2018-11-26T20:00:18.000Z,-2.14
2018-11-26T20:02:49.373Z,-2.15
2018-11-26T20:05:21.320Z,-2.14
2018-11-26T20:07:49.800Z,-2.12
2018-11-26T20:10:18.239Z,-2.12
2018-11-26T20:12:46.712Z,-2.08
2018-11-26T20:15:16.550Z,-2.11
2018-11-26T20:17:45.059Z,-2.07
2018-11-26T20:20:13.522Z,-2.02
2018-11-26T20:22:42.021Z,-2.04
2018-11-26T20:25:13.010Z,-2.13
2018-11-26T20:27:41.641Z,-2.21
2018-11-26T20:30:13.737Z,-2.27
2018-11-26T20:32:48.250Z,-2.32
2018-11-26T20:35:16.719Z,-2.36
2018-11-26T20:37:45.152Z,-2.35
2018-11-26T20:40:15.009Z,-2.39
2018-11-26T20:42:52.692Z,-2.43
2018-11-26T20:45:21.188Z,-2.48
2018-11-26T20:47:50.602Z,-2.57
2018-11-26T20:50:24.553Z,-2.60
2018-11-26T20:52:53.010Z,-2.60
2018-11-26T20:55:22.644Z,-2.61
2018-11-26T20:57:52.158Z,-2.65
2018-11-26T21:00:22.766Z,-2.67
2018-11-26T21:02:52.761Z,-2.68
2018-11-26T21:05:21.253Z,-2.71
2018-11-26T21:07:49.709Z,-2.72
2018-11-26T21:10:18.271Z,-2.73
2018-11-26T21:12:46.738Z,-2.75
2018-11-26T21:15:16.543Z,-2.74
2018-11-26T21:17:47.638Z,-2.70
2018-11-26T21:20:20.046Z,-2.68
2018-11-26T21:22:48.513Z,-2.63
2018-11-26T21:25:17.677Z,-2.70
2018-11-26T21:27:46.181Z,-2.76
2018-11-26T21:30:18.650Z,-2.79
2018-11-26T21:32:47.132Z,-2.84
2018-11-26T21:35:16.789Z,-2.84
2018-11-26T21:37:46.590Z,-2.83
2018-11-26T21:40:20.310Z,-2.79
2018-11-26T21:42:44.736Z,-2.78
2018-11-26T21:45:15.498Z,-2.86
2018-11-26T21:47:43.945Z,-2.88
2018-11-26T21:50:13.761Z,-2.91
2018-11-26T21:52:42.349Z,-2.97
2018-11-26T21:55:12.348Z,-3.05
2018-11-26T21:57:40.835Z,-3.10
2018-11-26T22:00:16.378Z,-3.13
2018-11-26T22:02:44.845Z,-3.12
2018-11-26T22:05:13.324Z,-3.16
2018-11-26T22:07:41.773Z,-3.22
2018-11-26T22:10:13.589Z,-3.23
2018-11-26T22:12:42.780Z,-3.28
2018-11-26T22:15:12.590Z,-3.31
2018-11-26T22:17:41.225Z,-3.32
2018-11-26T22:20:11.387Z,-3.29
2018-11-26T22:22:39.849Z,-3.31
2018-11-26T22:25:09.914Z,-3.32
2018-11-26T22:27:38.392Z,-3.35
2018-11-26T22:30:12.008Z,-3.32
2018-11-26T22:32:40.459Z,-3.40
2018-11-26T22:35:09.203Z,-3.50
2018-11-26T22:37:37.652Z,-3.54
2018-11-26T22:40:10.037Z,-3.55
2018-11-26T22:42:38.540Z,-3.56
2018-11-26T22:45:09.886Z,-3.57
2018-11-26T22:47:38.390Z,-3.56
2018-11-26T22:50:10.905Z,-3.58
2018-11-26T22:52:39.874Z,-3.57
2018-11-26T22:55:09.318Z,-3.56
2018-11-26T22:57:37.833Z,-3.54
2018-11-26T23:00:54.655Z,-3.54
2018-11-26T23:03:26.337Z,-3.54
2018-11-26T23:05:54.829Z,-3.53
2018-11-26T23:08:23.307Z,-3.55
2018-11-26T23:10:51.789Z,-3.54
2018-11-26T23:13:20.252Z,-3.58
2018-11-26T23:15:48.741Z,-3.57
2018-11-26T23:18:17.201Z,-3.56
2018-11-26T23:20:45.685Z,-3.56
2018-11-26T23:23:14.144Z,-3.54
2018-11-26T23:25:42.654Z,-3.57
2018-11-26T23:28:11.129Z,-3.61
2018-11-26T23:30:39.613Z,-3.68
2018-11-26T23:33:08.523Z,-3.72
2018-11-26T23:35:37.033Z,-3.68
2018-11-26T23:38:05.654Z,-3.76
2018-11-26T23:40:34.366Z,-3.82
2018-11-26T23:43:02.839Z,-3.86
2018-11-26T23:45:31.306Z,-3.91
2018-11-26T23:47:59.782Z,-3.96
2018-11-26T23:50:28.236Z,-4.01
2018-11-26T23:52:56.727Z,-4.08
2018-11-26T23:55:25.486Z,-4.17
2018-11-26T23:57:53.985Z,-4.22
